Time;durP1;ratioP1;P1;durP2;ratioP2;P2;SDS_P1;SDS_P2;PMS_P1;PMS_P2;Temp;Humidity;BMP_temperature;BMP_pressure;BME280_temperature;BME280_humidity;BME280_pressure;Samples;Min_cycle;Max_cycle;Signal;HPM_P1;HPM_P2
2022/11/09 00:00:52;;;;;;;6.10;3.50;;;4.90;99.90;;;;;;5092592;28;20231;-75
2022/11/09 00:03:20;;;;;;;4.30;3.60;;;4.90;99.90;;;;;;5092713;28;20675;-78
2022/11/09 00:05:57;;;;;;;4.20;3.50;;;4.90;99.90;;;;;;5092864;28;20203;-73
2022/11/09 00:08:26;;;;;;;5.67;3.83;;;4.90;99.90;;;;;;5092344;28;20210;-76
2022/11/09 00:10:56;;;;;;;4.57;3.53;;;4.90;99.90;;;;;;5092275;28;20283;-76
2022/11/09 00:13:25;;;;;;;5.07;3.60;;;4.80;99.90;;;;;;5092877;28;20203;-76
2022/11/09 00:15:58;;;;;;;4.73;3.50;;;4.80;99.90;;;;;;5092567;28;20206;-73
2022/11/09 00:18:31;;;;;;;6.00;3.93;;;4.80;99.90;;;;;;5092035;28;20799;-75
2022/11/09 00:21:08;;;;;;;6.13;3.90;;;4.80;99.90;;;;;;5104816;28;20217;-74
2022/11/09 00:23:36;;;;;;;4.37;3.43;;;4.80;99.90;;;;;;5113450;28;20189;-76
2022/11/09 00:26:09;;;;;;;4.30;3.30;;;4.70;99.90;;;;;;5112986;28;20209;-74
2022/11/09 00:28:38;;;;;;;5.57;3.57;;;4.70;99.90;;;;;;5112641;28;20209;-74
2022/11/09 00:31:09;;;;;;;4.47;3.67;;;4.70;99.90;;;;;;5116301;28;20206;-77
2022/11/09 00:33:40;;;;;;;6.03;3.40;;;4.60;99.90;;;;;;5116841;28;20273;-79
2022/11/09 00:36:12;;;;;;;7.43;4.07;;;4.60;99.90;;;;;;5109329;28;20578;-77
2022/11/09 00:38:41;;;;;;;5.33;3.80;;;4.60;99.90;;;;;;5106792;28;20209;-75
2022/11/09 00:41:11;;;;;;;4.77;3.40;;;4.50;99.90;;;;;;5118471;28;20256;-73
2022/11/09 00:43:41;;;;;;;5.30;3.87;;;4.50;99.90;;;;;;5117082;28;20206;-73
2022/11/09 00:46:09;;;;;;;6.13;3.70;;;4.40;99.90;;;;;;5107794;28;20218;-75
2022/11/09 00:48:40;;;;;;;4.53;3.70;;;4.40;99.90;;;;;;5096249;28;20265;-74
2022/11/09 00:51:11;;;;;;;6.93;4.20;;;4.40;99.90;;;;;;5095913;28;20198;-78
2022/11/09 00:53:42;;;;;;;6.17;3.83;;;4.40;99.90;;;;;;5096183;28;20207;-79
2022/11/09 00:56:15;;;;;;;7.47;4.27;;;4.40;99.90;;;;;;5096128;28;20222;-76
2022/11/09 00:58:43;;;;;;;5.20;3.97;;;4.40;99.90;;;;;;5096051;28;20203;-73
2022/11/09 01:01:14;;;;;;;5.33;3.87;;;4.40;99.90;;;;;;5096136;28;20234;-80
2022/11/09 01:03:45;;;;;;;5.87;3.80;;;4.40;99.90;;;;;;5095900;28;20721;-78
2022/11/09 01:06:17;;;;;;;5.17;3.87;;;4.40;99.90;;;;;;5095917;28;20558;-77
2022/11/09 01:08:48;;;;;;;5.50;3.97;;;4.30;99.90;;;;;;5096349;28;20560;-77
2022/11/09 01:11:18;;;;;;;6.13;4.00;;;4.30;99.90;;;;;;5096105;28;20199;-76
2022/11/09 01:13:46;;;;;;;5.30;3.67;;;4.30;99.90;;;;;;5095994;28;20275;-74
2022/11/09 01:16:18;;;;;;;6.43;3.67;;;4.40;99.90;;;;;;5096271;28;20199;-76
2022/11/09 01:18:48;;;;;;;4.93;3.70;;;4.40;99.90;;;;;;5094997;28;20257;-74
2022/11/09 01:21:17;;;;;;;6.03;3.77;;;4.40;99.90;;;;;;5095401;28;20700;-77
2022/11/09 01:23:48;;;;;;;5.73;3.97;;;4.30;99.90;;;;;;5095763;28;20216;-73
2022/11/09 01:26:16;;;;;;;5.67;3.83;;;4.30;99.90;;;;;;5095806;28;20214;-75
2022/11/09 01:28:45;;;;;;;5.77;3.83;;;4.30;99.90;;;;;;5107595;28;20250;-75
2022/11/09 01:31:15;;;;;;;4.93;3.40;;;4.30;99.90;;;;;;5116161;28;20675;-76
2022/11/09 01:33:46;;;;;;;4.30;3.47;;;4.30;99.90;;;;;;5115929;28;20210;-75
2022/11/09 01:36:15;;;;;;;5.03;3.40;;;4.30;99.90;;;;;;5115866;28;20214;-77
2022/11/09 01:38:46;;;;;;;5.07;3.20;;;4.30;99.90;;;;;;5098045;28;20578;-77
2022/11/09 01:41:18;;;;;;;4.67;3.43;;;4.30;99.90;;;;;;5094959;28;20207;-77
2022/11/09 01:44:11;;;;;;;5.93;3.73;;;4.30;99.90;;;;;;5095604;28;20202;-79
2022/11/09 01:46:48;;;;;;;4.00;3.07;;;4.20;99.90;;;;;;5094955;28;20203;-76
2022/11/09 01:49:27;;;;;;;4.47;3.37;;;4.20;99.90;;;;;;5094998;28;20269;-74
2022/11/09 01:51:59;;;;;;;5.20;3.63;;;4.20;99.90;;;;;;5095188;28;20187;-75
2022/11/09 01:54:33;;;;;;;4.93;3.53;;;4.20;99.90;;;;;;5095374;28;20218;-75
2022/11/09 01:57:09;;;;;;;3.67;3.20;;;4.10;99.90;;;;;;5095157;28;20223;-75
2022/11/09 01:59:47;;;;;;;4.70;3.20;;;4.10;99.90;;;;;;5095237;28;20190;-73
2022/11/09 02:02:15;;;;;;;4.53;3.20;;;4.00;99.90;;;;;;5095095;28;20242;-74
2022/11/09 02:04:51;;;;;;;4.83;3.50;;;4.10;99.90;;;;;;5095187;28;20205;-74
2022/11/09 02:07:25;;;;;;;4.63;3.40;;;4.00;99.90;;;;;;5094829;28;20205;-75
2022/11/09 02:10:02;;;;;;;4.27;3.50;;;4.00;99.90;;;;;;5094554;28;20216;-76
2022/11/09 02:12:35;;;;;;;4.93;3.63;;;4.00;99.90;;;;;;5094974;28;20195;-75
2022/11/09 02:15:10;;;;;;;4.87;3.60;;;4.00;99.90;;;;;;5094923;28;20210;-76
2022/11/09 02:17:40;;;;;;;5.00;3.60;;;3.90;99.90;;;;;;5098584;28;20210;-75
2022/11/09 02:20:12;;;;;;;4.70;3.53;;;3.90;99.90;;;;;;5116466;28;20207;-76
2022/11/09 02:22:41;;;;;;;5.00;3.57;;;3.90;99.90;;;;;;5118060;28;20191;-78
2022/11/09 02:25:13;;;;;;;7.10;3.40;;;3.90;99.90;;;;;;5117534;28;20198;-75
2022/11/09 02:27:43;;;;;;;6.07;3.50;;;3.90;99.90;;;;;;5117209;28;20222;-74
2022/11/09 02:30:15;;;;;;;4.57;3.30;;;3.90;99.90;;;;;;5103033;28;20203;-75
2022/11/09 02:32:46;;;;;;;4.73;3.30;;;3.80;99.90;;;;;;5095766;28;20678;-79
2022/11/09 02:35:15;;;;;;;5.10;3.53;;;3.80;99.90;;;;;;5100609;28;20549;-75
2022/11/09 02:37:47;;;;;;;6.53;3.53;;;3.80;99.90;;;;;;5115229;28;20210;-74
2022/11/09 02:40:23;;;;;;;4.80;3.60;;;3.80;99.90;;;;;;5111995;28;20210;-77
2022/11/09 02:42:51;;;;;;;5.40;3.67;;;3.70;99.90;;;;;;5106990;28;20191;-75
2022/11/09 02:45:19;;;;;;;5.10;3.73;;;3.70;99.90;;;;;;5100964;28;20651;-76
2022/11/09 02:47:47;;;;;;;4.50;3.57;;;3.70;99.90;;;;;;5094346;28;20640;-77
2022/11/09 02:50:17;;;;;;;5.37;3.63;;;3.70;99.90;;;;;;5112243;28;20213;-77
2022/11/09 02:52:45;;;;;;;5.97;3.80;;;3.70;99.90;;;;;;5114936;28;20201;-77
2022/11/09 02:55:13;;;;;;;6.13;3.60;;;3.70;99.90;;;;;;5118590;28;20580;-75
2022/11/09 02:57:41;;;;;;;4.93;3.33;;;3.70;99.90;;;;;;5101204;28;20237;-76
2022/11/09 03:00:11;;;;;;;7.80;4.10;;;3.70;99.90;;;;;;5095425;28;20268;-77
2022/11/09 03:02:39;;;;;;;5.23;3.80;;;3.70;99.90;;;;;;5112226;28;20202;-76
2022/11/09 03:05:08;;;;;;;6.50;3.90;;;3.70;99.90;;;;;;5115086;28;20891;-79
2022/11/09 03:07:38;;;;;;;4.17;3.43;;;3.70;99.90;;;;;;5114700;28;20214;-81
2022/11/09 03:10:08;;;;;;;5.13;3.40;;;3.70;99.90;;;;;;5112178;28;20219;-77
2022/11/09 03:12:38;;;;;;;5.43;3.63;;;3.60;99.90;;;;;;5113607;28;20258;-81
2022/11/09 03:15:08;;;;;;;5.00;3.70;;;3.60;99.90;;;;;;5117888;28;20214;-74
2022/11/09 03:17:36;;;;;;;4.40;3.50;;;3.60;99.90;;;;;;5118585;28;20197;-80
2022/11/09 03:20:05;;;;;;;6.53;3.47;;;3.50;99.90;;;;;;5114457;28;20640;-77
2022/11/09 03:22:33;;;;;;;4.37;3.30;;;3.60;99.90;;;;;;5099634;28;20218;-76
2022/11/09 03:25:13;;;;;;;5.30;3.80;;;3.50;99.90;;;;;;5093904;28;20612;-78
2022/11/09 03:27:41;;;;;;;4.17;3.30;;;3.50;99.90;;;;;;5086253;28;20191;-76
2022/11/09 03:30:10;;;;;;;5.90;3.93;;;3.50;99.90;;;;;;5093818;28;20233;-79
2022/11/09 03:32:38;;;;;;;7.00;3.13;;;3.50;99.90;;;;;;5093025;28;20206;-76
2022/11/09 03:35:12;;;;;;;4.23;3.27;;;3.50;99.90;;;;;;5093289;28;20214;-74
2022/11/09 03:37:42;;;;;;;6.77;3.57;;;3.50;99.90;;;;;;5093486;28;20220;-73
2022/11/09 03:40:12;;;;;;;4.80;3.50;;;3.40;99.90;;;;;;5093362;28;20250;-77
2022/11/09 03:42:44;;;;;;;4.70;3.37;;;3.40;99.90;;;;;;5093767;28;20203;-79
2022/11/09 03:45:13;;;;;;;6.07;3.70;;;3.40;99.90;;;;;;5093530;28;20580;-77
2022/11/09 03:47:41;;;;;;;4.70;3.70;;;3.40;99.90;;;;;;5093192;28;20218;-78
2022/11/09 03:50:10;;;;;;;7.87;3.60;;;3.40;99.90;;;;;;5096825;28;20227;-78
2022/11/09 03:52:38;;;;;;;5.57;3.63;;;3.40;99.90;;;;;;5092897;28;20214;-77
2022/11/09 03:55:07;;;;;;;4.73;3.43;;;3.40;99.90;;;;;;5093582;28;20213;-78
2022/11/09 03:57:41;;;;;;;4.23;3.20;;;3.50;99.90;;;;;;5113946;28;20225;-75
2022/11/09 04:00:10;;;;;;;5.33;3.20;;;3.50;99.90;;;;;;5113160;28;20190;-78
2022/11/09 04:02:38;;;;;;;4.97;3.30;;;3.50;99.90;;;;;;5112989;28;20231;-78
2022/11/09 04:05:08;;;;;;;5.70;3.50;;;3.50;99.90;;;;;;5093078;28;20566;-78
2022/11/09 04:07:37;;;;;;;5.17;3.27;;;3.60;99.90;;;;;;5092810;28;20212;-76
2022/11/09 04:10:07;;;;;;;7.13;3.27;;;3.60;99.90;;;;;;5092183;28;20853;-74
2022/11/09 04:12:36;;;;;;;4.13;2.90;;;3.60;99.90;;;;;;5092411;28;20548;-78
2022/11/09 04:15:09;;;;;;;4.93;3.43;;;3.60;99.90;;;;;;5093462;28;20206;-75
2022/11/09 04:17:38;;;;;;;9.33;3.70;;;3.60;99.90;;;;;;5092882;28;20210;-76
2022/11/09 04:20:10;;;;;;;4.63;3.27;;;3.70;99.90;;;;;;5092166;28;20222;-76
2022/11/09 04:22:38;;;;;;;6.67;3.50;;;3.80;99.90;;;;;;5091052;28;20686;-74
2022/11/09 04:25:09;;;;;;;5.47;3.70;;;3.70;99.90;;;;;;5092573;28;20208;-74
2022/11/09 04:27:37;;;;;;;5.13;3.63;;;3.80;99.90;;;;;;5092651;28;20214;-78
2022/11/09 04:30:08;;;;;;;4.13;3.20;;;3.80;99.90;;;;;;5092350;28;20222;-77
2022/11/09 04:32:36;;;;;;;4.03;3.07;;;3.80;99.90;;;;;;5092729;28;20211;-79
2022/11/09 04:35:07;;;;;;;4.47;3.00;;;3.80;99.90;;;;;;5092798;28;20203;-77
2022/11/09 04:37:35;;;;;;;5.63;3.33;;;3.80;99.90;;;;;;5092800;28;20207;-74
2022/11/09 04:40:04;;;;;;;3.83;3.20;;;3.80;99.90;;;;;;5092309;28;20578;-72
2022/11/09 04:42:32;;;;;;;4.63;3.60;;;3.70;99.90;;;;;;5092913;28;20206;-80
2022/11/09 04:45:03;;;;;;;3.93;3.30;;;3.70;99.90;;;;;;5092838;28;20199;-77
2022/11/09 04:47:34;;;;;;;3.87;3.17;;;3.70;99.90;;;;;;5092342;28;20205;-74
2022/11/09 04:50:02;;;;;;;5.20;3.43;;;3.70;99.90;;;;;;5091873;28;20735;-80
2022/11/09 04:52:31;;;;;;;5.37;3.50;;;3.70;99.90;;;;;;5092525;28;20203;-79
2022/11/09 04:55:00;;;;;;;4.77;3.30;;;3.70;99.90;;;;;;5092621;28;20206;-76
2022/11/09 04:57:28;;;;;;;4.57;3.10;;;3.60;99.90;;;;;;5091805;28;20249;-74
2022/11/09 04:59:57;;;;;;;5.07;3.27;;;3.70;99.90;;;;;;5091957;28;20210;-76
2022/11/09 05:02:26;;;;;;;3.97;3.30;;;3.70;99.90;;;;;;5099441;28;20202;-74
2022/11/09 05:04:55;;;;;;;5.63;3.33;;;3.60;99.90;;;;;;5092534;28;20209;-73
2022/11/09 05:07:24;;;;;;;4.00;3.00;;;3.70;99.90;;;;;;5092219;28;20199;-74
2022/11/09 05:09:55;;;;;;;4.80;3.23;;;3.60;99.90;;;;;;5091766;28;20211;-78
2022/11/09 05:12:23;;;;;;;4.93;3.13;;;3.60;99.90;;;;;;5092046;28;20218;-77
2022/11/09 05:14:51;;;;;;;4.23;3.30;;;3.60;99.90;;;;;;5092001;28;20214;-78
2022/11/09 05:17:19;;;;;;;5.30;3.50;;;3.70;99.90;;;;;;5101628;28;20199;-78
2022/11/09 05:19:48;;;;;;;5.47;3.43;;;3.60;99.90;;;;;;5115987;28;20202;-77
2022/11/09 05:25:09;;;;;;;6.83;3.23;;;3.60;99.90;;;;;;5116168;28;20183;-73
2022/11/09 05:27:40;;;;;;;4.60;3.47;;;3.60;99.90;;;;;;5116444;28;20232;-78
2022/11/09 05:30:14;;;;;;;5.53;3.10;;;3.60;99.90;;;;;;5116044;28;20222;-76
2022/11/09 05:32:42;;;;;;;4.30;3.47;;;3.60;99.90;;;;;;5108350;28;20288;-76
2022/11/09 05:35:12;;;;;;;4.77;3.20;;;3.60;99.90;;;;;;5095597;28;20268;-74
2022/11/09 05:37:41;;;;;;;6.57;5.17;;;3.50;99.90;;;;;;5115110;28;20233;-76
2022/11/09 05:40:11;;;;;;;8.67;6.00;;;3.50;99.90;;;;;;5116195;28;20202;-74
2022/11/09 05:42:40;;;;;;;11.03;8.37;;;3.50;99.90;;;;;;5115761;28;20229;-76
2022/11/09 05:45:09;;;;;;;11.73;7.73;;;3.40;99.90;;;;;;5113269;28;20214;-74
2022/11/09 05:47:57;;;;;;;8.13;6.20;;;3.40;99.90;;;;;;5095571;28;20207;-75
2022/11/09 05:50:25;;;;;;;7.77;5.27;;;3.40;99.90;;;;;;5094739;28;20227;-75
2022/11/09 05:52:58;;;;;;;9.63;5.93;;;3.40;99.90;;;;;;5095823;28;20228;-75
2022/11/09 05:55:26;;;;;;;6.47;4.60;;;3.40;99.90;;;;;;5110662;28;20217;-74
2022/11/09 05:57:55;;;;;;;5.93;4.87;;;3.40;99.90;;;;;;5115472;28;20194;-72
2022/11/09 06:00:23;;;;;;;6.47;4.80;;;3.40;99.90;;;;;;5116473;28;20233;-75
2022/11/09 06:02:55;;;;;;;8.97;5.47;;;3.40;99.90;;;;;;5116193;28;20205;-76
2022/11/09 06:05:23;;;;;;;7.83;5.50;;;3.40;99.90;;;;;;5116551;28;20203;-74
2022/11/09 06:07:53;;;;;;;7.93;6.03;;;3.40;99.90;;;;;;5117040;28;20222;-79
2022/11/09 06:10:23;;;;;;;7.17;4.77;;;3.40;99.90;;;;;;5118758;28;20239;-74
2022/11/09 06:12:56;;;;;;;6.10;4.97;;;3.40;99.90;;;;;;5124294;28;20214;-79
2022/11/09 06:15:24;;;;;;;7.97;5.00;;;3.40;99.90;;;;;;5127258;28;20226;-76
2022/11/09 06:17:55;;;;;;;6.83;4.97;;;3.40;99.90;;;;;;5125453;28;20206;-77
2022/11/09 06:20:26;;;;;;;6.00;4.50;;;3.40;99.90;;;;;;5117648;28;20200;-77
2022/11/09 06:22:54;;;;;;;6.57;4.50;;;3.40;99.90;;;;;;5117772;28;20217;-78
2022/11/09 06:25:31;;;;;;;7.40;4.67;;;3.40;99.90;;;;;;5117814;28;20215;-77
2022/11/09 06:28:00;;;;;;;9.10;5.63;;;3.40;99.90;;;;;;5116978;28;20270;-79
2022/11/09 06:30:29;;;;;;;6.97;5.20;;;3.50;99.90;;;;;;5097422;28;20316;-74
2022/11/09 06:33:01;;;;;;;6.50;4.90;;;3.50;99.90;;;;;;5097468;28;20233;-80
2022/11/09 06:35:29;;;;;;;7.00;4.90;;;3.50;99.90;;;;;;5099165;28;20214;-75
2022/11/09 06:37:58;;;;;;;9.87;5.63;;;3.60;99.90;;;;;;5113620;28;20212;-74
2022/11/09 06:40:30;;;;;;;10.43;6.57;;;3.60;99.90;;;;;;5124304;28;20229;-78
2022/11/09 06:42:59;;;;;;;12.20;6.50;;;3.70;99.90;;;;;;5136375;28;20242;-76
2022/11/09 06:45:28;;;;;;;14.83;7.17;;;3.80;99.90;;;;;;5135767;28;20218;-76
2022/11/09 06:47:57;;;;;;;9.03;6.27;;;3.90;99.90;;;;;;5116877;28;20254;-75
2022/11/09 06:50:26;;;;;;;12.57;6.53;;;4.00;99.90;;;;;;5115463;28;20232;-77
2022/11/09 06:52:58;;;;;;;10.03;7.00;;;4.10;99.90;;;;;;5099820;28;20203;-76
2022/11/09 06:55:26;;;;;;;15.27;8.27;;;4.20;99.90;;;;;;5097047;28;20742;-75
2022/11/09 06:57:57;;;;;;;16.00;11.40;;;4.20;99.90;;;;;;5096780;28;20204;-74
2022/11/09 07:00:27;;;;;;;19.70;12.70;;;4.30;99.90;;;;;;5095999;28;20218;-76
2022/11/09 07:02:55;;;;;;;17.47;12.30;;;4.40;99.90;;;;;;5097218;28;20252;-76
2022/11/09 07:05:24;;;;;;;21.10;11.23;;;4.50;99.90;;;;;;5096540;28;20213;-75
2022/11/09 07:07:53;;;;;;;12.93;8.10;;;4.60;99.90;;;;;;5098625;28;20664;-75
2022/11/09 07:10:22;;;;;;;18.50;6.60;;;4.70;99.90;;;;;;5096821;28;20673;-77
2022/11/09 07:12:50;;;;;;;9.30;4.37;;;4.80;99.90;;;;;;5106055;28;20241;-75
2022/11/09 07:15:20;;;;;;;10.07;4.17;;;4.90;99.90;;;;;;5115921;28;20213;-79
2022/11/09 07:17:48;;;;;;;6.03;3.70;;;5.10;99.90;;;;;;5114971;28;20237;-75
2022/11/09 07:20:16;;;;;;;7.00;3.43;;;5.20;99.90;;;;;;5114958;28;20212;-76
2022/11/09 07:22:44;;;;;;;6.47;3.40;;;5.40;99.90;;;;;;5114921;28;20211;-78
2022/11/09 07:25:13;;;;;;;7.30;3.77;;;5.40;99.90;;;;;;5115068;28;20201;-76
2022/11/09 07:27:41;;;;;;;6.73;3.67;;;5.60;99.90;;;;;;5114543;28;20232;-75
2022/11/09 07:30:13;;;;;;;8.17;3.70;;;5.70;99.90;;;;;;5113086;28;20211;-77
2022/11/09 07:32:43;;;;;;;6.10;3.87;;;5.80;99.90;;;;;;5094572;28;20203;-77
2022/11/09 07:35:31;;;;;;;7.53;4.10;;;5.90;99.90;;;;;;5096001;28;20297;-74
2022/11/09 07:38:02;;;;;;;8.60;3.77;;;6.00;99.90;;;;;;5094780;28;20206;-79
2022/11/09 07:40:31;;;;;;;6.20;4.17;;;6.10;99.90;;;;;;5093181;28;20222;-76
2022/11/09 07:42:59;;;;;;;8.17;3.80;;;6.20;99.90;;;;;;5096262;28;20215;-76
2022/11/09 07:45:29;;;;;;;6.17;3.77;;;6.20;99.90;;;;;;5093857;28;20202;-77
2022/11/09 07:48:02;;;;;;;7.43;3.97;;;6.20;99.90;;;;;;5099743;28;20285;-77
2022/11/09 07:50:33;;;;;;;5.33;3.90;;;6.30;99.90;;;;;;5114385;28;20221;-76
2022/11/09 07:53:04;;;;;;;11.60;3.67;;;6.50;99.90;;;;;;5115901;28;20210;-76
2022/11/09 07:55:35;;;;;;;8.73;3.87;;;6.60;99.90;;;;;;5116894;28;20217;-74
2022/11/09 07:58:06;;;;;;;6.17;3.37;;;6.70;99.90;;;;;;5114207;28;20197;-77
2022/11/09 08:00:36;;;;;;;6.43;3.37;;;6.80;99.90;;;;;;5114332;28;20715;-76
2022/11/09 08:03:08;;;;;;;4.97;3.57;;;6.70;99.90;;;;;;5113897;28;20267;-76
2022/11/09 08:05:37;;;;;;;9.50;3.70;;;6.90;99.90;;;;;;5114431;28;20632;-76
2022/11/09 08:08:11;;;;;;;4.90;3.40;;;7.10;99.90;;;;;;5098686;28;20225;-75
2022/11/09 08:10:40;;;;;;;4.03;2.70;;;7.20;99.90;;;;;;5093374;28;20221;-74
2022/11/09 08:13:14;;;;;;;6.23;3.33;;;7.40;99.90;;;;;;5093905;28;20211;-75
2022/11/09 08:15:43;;;;;;;4.50;2.83;;;7.40;99.90;;;;;;5095002;28;20563;-74
2022/11/09 08:18:14;;;;;;;4.30;2.80;;;7.60;99.90;;;;;;5115738;28;20213;-73
2022/11/09 08:20:46;;;;;;;5.57;3.03;;;7.80;99.90;;;;;;5115433;28;20210;-76
2022/11/09 08:23:16;;;;;;;5.40;3.00;;;7.90;99.90;;;;;;5114830;28;20214;-77
2022/11/09 08:25:45;;;;;;;8.60;3.13;;;8.10;99.90;;;;;;5115013;28;20206;-77
2022/11/09 08:28:19;;;;;;;4.47;2.77;;;8.30;99.90;;;;;;5114716;28;20210;-76
2022/11/09 08:30:55;;;;;;;4.50;3.00;;;8.60;99.90;;;;;;5113921;28;20218;-74
2022/11/09 08:33:26;;;;;;;5.20;2.87;;;9.00;99.90;;;;;;5114581;28;20205;-75
2022/11/09 08:35:55;;;;;;;3.87;2.60;;;9.10;99.90;;;;;;5113789;28;20206;-73
2022/11/09 08:38:24;;;;;;;6.17;2.70;;;9.50;99.90;;;;;;5114936;28;20214;-76
2022/11/09 08:40:58;;;;;;;4.67;2.70;;;9.70;99.90;;;;;;5115513;28;20609;-76
2022/11/09 08:43:27;;;;;;;7.10;3.13;;;9.80;99.90;;;;;;5109264;28;20214;-75
2022/11/09 08:45:58;;;;;;;2.90;2.20;;;10.00;99.90;;;;;;5100861;28;20214;-76
2022/11/09 08:48:27;;;;;;;3.40;2.30;;;9.90;99.90;;;;;;5103174;28;20192;-75
2022/11/09 08:50:57;;;;;;;4.17;2.50;;;10.00;99.90;;;;;;5094548;28;20237;-74
2022/11/09 08:53:29;;;;;;;3.10;2.37;;;10.00;99.90;;;;;;5097389;28;20672;-76
2022/11/09 08:56:00;;;;;;;5.43;2.57;;;10.20;99.90;;;;;;5097520;28;20259;-74
2022/11/09 08:58:30;;;;;;;3.40;2.30;;;10.10;99.90;;;;;;5097427;28;20222;-76
2022/11/09 09:00:58;;;;;;;4.93;2.40;;;10.30;99.90;;;;;;5097368;28;20230;-74
2022/11/09 09:03:30;;;;;;;3.97;2.30;;;10.50;99.90;;;;;;5096417;28;20211;-74
2022/11/09 09:06:02;;;;;;;3.83;2.17;;;10.70;99.90;;;;;;5096584;28;20187;-77
2022/11/09 09:08:31;;;;;;;4.23;1.90;;;10.80;99.90;;;;;;5096199;28;20611;-74
2022/11/09 09:11:02;;;;;;;4.47;2.30;;;11.20;99.90;;;;;;5095424;28;20203;-76
2022/11/09 09:13:33;;;;;;;4.57;2.40;;;11.20;99.90;;;;;;5096552;28;20576;-74
2022/11/09 09:16:10;;;;;;;3.80;2.27;;;11.40;99.90;;;;;;5095887;28;20182;-75
2022/11/09 09:18:40;;;;;;;3.20;2.40;;;11.30;99.90;;;;;;5096118;28;20265;-76
2022/11/09 09:21:14;;;;;;;4.37;2.60;;;11.10;99.90;;;;;;5095560;28;20207;-76
2022/11/09 09:23:43;;;;;;;5.33;2.53;;;11.10;99.90;;;;;;5095575;28;20206;-74
2022/11/09 09:26:11;;;;;;;3.60;2.40;;;11.00;99.90;;;;;;5102338;28;20289;-78
2022/11/09 09:28:42;;;;;;;4.20;2.17;;;11.00;99.90;;;;;;5095512;28;20199;-75
2022/11/09 09:31:10;;;;;;;2.77;2.27;;;10.80;99.90;;;;;;5100172;28;20241;-77
2022/11/09 09:33:46;;;;;;;5.30;2.60;;;10.80;99.90;;;;;;5108006;28;20199;-75
2022/11/09 09:36:17;;;;;;;4.87;2.20;;;10.50;99.90;;;;;;5117149;28;20212;-75
2022/11/09 09:38:49;;;;;;;5.53;2.60;;;10.50;99.90;;;;;;5097595;28;20569;-73
2022/11/09 09:41:22;;;;;;;4.83;2.33;;;10.60;99.90;;;;;;5095862;28;20211;-76
2022/11/09 09:43:54;;;;;;;4.47;2.40;;;10.70;99.90;;;;;;5095442;28;20206;-74
2022/11/09 09:46:26;;;;;;;5.17;2.67;;;10.70;99.90;;;;;;5094983;28;20219;-77
2022/11/09 09:49:04;;;;;;;5.13;2.67;;;10.70;99.90;;;;;;5095036;28;20202;-74
2022/11/09 09:51:37;;;;;;;4.37;2.30;;;10.70;99.90;;;;;;5095103;28;20513;-75
2022/11/09 09:54:24;;;;;;;3.47;2.37;;;10.60;99.90;;;;;;5095343;28;20195;-78
2022/11/09 09:56:55;;;;;;;5.70;2.23;;;10.50;99.90;;;;;;5076529;28;20731;-73
2022/11/09 09:59:31;;;;;;;3.33;2.30;;;10.70;99.90;;;;;;5095312;28;20218;-75
2022/11/09 10:02:00;;;;;;;3.67;2.40;;;10.70;99.90;;;;;;5094301;28;20219;-73
2022/11/09 10:04:41;;;;;;;4.47;2.40;;;10.80;99.90;;;;;;5094750;28;20214;-76
2022/11/09 10:07:16;;;;;;;3.73;2.23;;;10.90;99.90;;;;;;5095627;28;20207;-77
2022/11/09 10:10:04;;;;;;;4.13;3.03;;;11.00;99.90;;;;;;5095304;28;20210;-76
2022/11/09 10:12:41;;;;;;;3.00;2.40;;;11.10;99.90;;;;;;5094927;28;20238;-74
2022/11/09 10:15:16;;;;;;;2.90;2.37;;;11.30;99.90;;;;;;5111877;28;20193;-74
2022/11/09 10:18:12;;;;;;;7.60;3.13;;;11.40;99.90;;;;;;5115168;28;20659;-76
2022/11/09 10:20:58;;;;;;;4.53;2.90;;;11.60;99.90;;;;;;5115461;28;20632;-75
2022/11/09 10:23:40;;;;;;;5.63;3.23;;;11.90;99.90;;;;;;5096947;28;20211;-74
2022/11/09 10:26:17;;;;;;;6.17;2.70;;;12.30;99.90;;;;;;5115915;28;20207;-74
2022/11/09 10:28:53;;;;;;;6.93;2.73;;;12.90;99.90;;;;;;5116248;28;20300;-74
2022/11/09 10:31:47;;;;;;;8.20;6.00;;;13.30;99.90;;;;;;5118906;28;20210;-73
2022/11/09 10:34:19;;;;;;;4.17;2.50;;;13.80;99.90;;;;;;5124718;28;20190;-74
2022/11/09 10:36:56;;;;;;;4.10;2.50;;;14.40;99.90;;;;;;5129433;28;20226;-75
2022/11/09 10:39:27;;;;;;;5.77;2.47;;;15.20;99.90;;;;;;5128884;28;20206;-75
2022/11/09 10:41:55;;;;;;;4.70;2.77;;;16.00;99.90;;;;;;5099478;28;20210;-75
2022/11/09 10:44:23;;;;;;;4.70;2.70;;;15.90;99.90;;;;;;5094720;28;20237;-74
2022/11/09 10:47:04;;;;;;;3.30;2.23;;;16.10;99.90;;;;;;5094481;28;20312;-76
2022/11/09 10:49:33;;;;;;;3.63;2.13;;;16.00;99.90;;;;;;5093813;28;20238;-75
2022/11/09 10:52:05;;;;;;;3.77;2.60;;;15.90;99.90;;;;;;5093650;28;20231;-75
2022/11/09 10:54:36;;;;;;;3.90;2.30;;;15.60;99.90;;;;;;5093900;28;20209;-76
2022/11/09 10:57:14;;;;;;;5.37;2.27;;;14.90;99.90;;;;;;5093659;28;20219;-75
2022/11/09 10:59:49;;;;;;;3.83;2.37;;;14.80;99.90;;;;;;5093501;28;20209;-75
2022/11/09 11:02:41;;;;;;;3.33;2.47;;;14.90;99.90;;;;;;5093813;28;20206;-74
2022/11/09 11:05:37;;;;;;;5.80;2.50;;;14.60;99.90;;;;;;5093960;28;20275;-74
2022/11/09 11:08:22;;;;;;;6.73;2.37;;;14.60;99.90;;;;;;5093283;28;20224;-77
2022/11/09 11:10:51;;;;;;;6.57;2.40;;;14.60;99.90;;;;;;5093742;28;20191;-75
2022/11/09 11:13:40;;;;;;;3.70;2.00;;;14.80;99.90;;;;;;5092873;28;20222;-75
2022/11/09 11:16:28;;;;;;;4.93;2.23;;;15.80;99.90;;;;;;5093015;28;20219;-78
2022/11/09 11:18:56;;;;;;;5.70;2.50;;;16.70;99.90;;;;;;5093556;28;20211;-76
2022/11/09 11:21:26;;;;;;;2.63;2.10;;;17.50;99.90;;;;;;5093339;28;20695;-76
2022/11/09 11:24:13;;;;;;;2.33;1.80;;;17.40;99.90;;;;;;5109500;28;20217;-77
2022/11/09 11:26:57;;;;;;;3.40;2.00;;;18.30;99.90;;;;;;5113472;28;20190;-77
2022/11/09 11:29:47;;;;;;;6.13;2.60;;;18.40;99.90;;;;;;5113444;28;20194;-77
2022/11/09 11:32:17;;;;;;;6.20;2.40;;;18.70;99.90;;;;;;5113269;28;20278;-77
2022/11/09 11:34:45;;;;;;;6.60;3.13;;;18.50;99.90;;;;;;5113124;28;20207;-78
2022/11/09 11:37:42;;;;;;;4.47;2.00;;;18.30;99.90;;;;;;5093056;28;20550;-76
2022/11/09 11:40:19;;;;;;;3.30;2.17;;;18.00;99.90;;;;;;5094164;28;20214;-76
2022/11/09 11:43:03;;;;;;;5.77;2.30;;;18.00;99.90;;;;;;5093747;28;20225;-75
2022/11/09 11:45:41;;;;;;;3.27;2.10;;;17.40;99.90;;;;;;5092472;28;20374;-76
2022/11/09 11:48:31;;;;;;;3.37;1.83;;;17.20;99.90;;;;;;5092760;28;20252;-76
2022/11/09 11:51:06;;;;;;;4.73;2.10;;;17.30;99.90;;;;;;5092601;28;20195;-75
2022/11/09 11:53:53;;;;;;;2.90;2.10;;;17.50;99.90;;;;;;5092314;28;20222;-77
2022/11/09 11:56:28;;;;;;;3.07;1.70;;;17.20;99.90;;;;;;5092379;28;20211;-76
2022/11/09 11:59:13;;;;;;;5.90;1.80;;;17.10;99.90;;;;;;5092510;28;20206;-76
2022/11/09 12:02:01;;;;;;;2.20;1.73;;;17.10;99.90;;;;;;5075999;28;20222;-77
2022/11/09 12:04:44;;;;;;;3.63;1.87;;;16.90;99.90;;;;;;5092822;28;20197;-75
2022/11/09 12:07:28;;;;;;;3.97;1.80;;;16.70;99.90;;;;;;5093233;28;20214;-77
2022/11/09 12:10:22;;;;;;;3.07;1.93;;;16.70;99.90;;;;;;5102501;28;20683;-75
2022/11/09 12:12:59;;;;;;;3.03;2.20;;;16.20;99.90;;;;;;5113174;28;20214;-74
2022/11/09 12:15:44;;;;;;;2.93;1.90;;;16.20;99.90;;;;;;5113359;28;20572;-75
2022/11/09 12:18:30;;;;;;;3.30;2.10;;;16.40;99.90;;;;;;5113321;28;20206;-76
2022/11/09 12:21:14;;;;;;;4.33;1.90;;;16.30;99.90;;;;;;5092541;28;20207;-75
2022/11/09 12:24:01;;;;;;;4.47;1.90;;;16.50;99.90;;;;;;5093281;28;20270;-75
2022/11/09 12:26:44;;;;;;;7.07;5.47;;;16.60;99.90;;;;;;5095171;28;20191;-74
2022/11/09 12:29:20;;;;;;;3.10;2.03;;;16.70;99.90;;;;;;5096750;28;20214;-75
2022/11/09 12:32:05;;;;;;;3.87;1.90;;;16.80;99.90;;;;;;5097726;28;20197;-74
2022/11/09 12:34:37;;;;;;;3.07;1.93;;;16.90;99.90;;;;;;5097531;28;20226;-74
2022/11/09 12:37:13;;;;;;;3.73;1.97;;;16.80;99.90;;;;;;5096241;28;20252;-73
2022/11/09 12:39:46;;;;;;;3.83;1.90;;;16.80;99.90;;;;;;5090413;28;20219;-74
2022/11/09 12:42:20;;;;;;;4.53;1.90;;;16.90;99.90;;;;;;5097120;28;20198;-74
2022/11/09 12:44:59;;;;;;;3.23;2.00;;;16.80;99.90;;;;;;5097711;28;20195;-75
2022/11/09 12:47:29;;;;;;;4.27;2.20;;;16.80;99.90;;;;;;5096251;28;20190;-74
2022/11/09 12:49:58;;;;;;;3.07;1.70;;;16.70;99.90;;;;;;5096190;28;20207;-75
2022/11/09 12:52:29;;;;;;;3.83;1.90;;;16.30;99.90;;;;;;5103169;28;20226;-75
2022/11/09 12:55:01;;;;;;;3.80;1.80;;;16.30;99.90;;;;;;5106363;28;20233;-76
2022/11/09 12:57:32;;;;;;;5.70;1.70;;;16.10;99.90;;;;;;5095515;28;20587;-74
2022/11/09 13:00:06;;;;;;;3.83;1.97;;;16.10;99.90;;;;;;5096060;28;20563;-75
2022/11/09 13:02:37;;;;;;;3.83;2.20;;;16.10;99.90;;;;;;5096392;28;20214;-75
2022/11/09 13:05:08;;;;;;;4.60;1.87;;;16.00;99.90;;;;;;5096175;28;20183;-75
2022/11/09 13:07:48;;;;;;;7.00;2.30;;;16.10;99.90;;;;;;5096592;28;20597;-74
2022/11/09 13:10:27;;;;;;;4.90;2.17;;;16.10;99.90;;;;;;5095791;28;20207;-75
2022/11/09 13:13:07;;;;;;;2.17;1.80;;;15.90;99.90;;;;;;5095916;28;20187;-75
2022/11/09 13:16:00;;;;;;;2.07;1.63;;;15.90;99.90;;;;;;5096191;28;20229;-75
2022/11/09 13:18:49;;;;;;;4.60;2.03;;;15.80;99.90;;;;;;5095259;28;20691;-75
2022/11/09 13:21:41;;;;;;;3.87;1.80;;;15.70;99.90;;;;;;5096437;28;20209;-74
2022/11/09 13:24:53;;;;;;;3.33;2.03;;;15.60;99.90;;;;;;5096268;28;20183;-75